Time;durP1;ratioP1;P1;durP2;ratioP2;P2;SDS_P1;SDS_P2;PMS_P1;PMS_P2;Temp;Humidity;BMP_temperature;BMP_pressure;BME280_temperature;BME280_humidity;BME280_pressure;Samples;Min_cycle;Max_cycle;Signal;HPM_P1;HPM_P2
2023/06/02 00:00:48;;;;;;;18.58;3.30;;;12.10;99.90;;;;;;4973631;28;20051;-44
2023/06/02 00:03:15;;;;;;;22.33;3.33;;;12.00;99.90;;;;;;4973486;28;20134;-39
2023/06/02 00:05:44;;;;;;;17.23;3.60;;;12.00;99.90;;;;;;4985435;28;20149;-43
2023/06/02 00:08:12;;;;;;;21.35;4.13;;;12.00;99.90;;;;;;4988801;28;20096;-38
2023/06/02 00:10:39;;;;;;;18.48;3.22;;;11.90;99.90;;;;;;4974633;28;20141;-40
2023/06/02 00:13:07;;;;;;;14.52;3.30;;;11.90;99.90;;;;;;4983418;28;20541;-40
2023/06/02 00:15:34;;;;;;;23.98;3.63;;;11.90;99.90;;;;;;4986326;28;20047;-38
2023/06/02 00:18:01;;;;;;;16.48;3.47;;;11.90;99.90;;;;;;4981052;28;20050;-41
2023/06/02 00:20:28;;;;;;;20.50;3.65;;;11.90;99.90;;;;;;4974046;28;20057;-40
2023/06/02 00:22:57;;;;;;;12.80;2.85;;;11.80;99.90;;;;;;4974553;28;20086;-40
2023/06/02 00:25:25;;;;;;;18.55;4.15;;;11.80;99.90;;;;;;4975688;28;20093;-40
2023/06/02 00:27:52;;;;;;;17.83;3.30;;;11.80;99.90;;;;;;4982389;28;20454;-38
2023/06/02 00:30:18;;;;;;;21.17;3.83;;;11.80;99.90;;;;;;4975802;28;20074;-40
2023/06/02 00:32:45;;;;;;;17.88;3.85;;;11.80;99.90;;;;;;4980600;28;20082;-39
2023/06/02 00:35:12;;;;;;;17.80;3.58;;;11.80;99.90;;;;;;4989751;28;20129;-42
2023/06/02 00:37:39;;;;;;;14.13;3.50;;;11.80;99.90;;;;;;4978349;28;20487;-41
2023/06/02 00:40:07;;;;;;;19.50;3.50;;;11.80;99.90;;;;;;4972746;28;20125;-40
2023/06/02 00:42:36;;;;;;;18.15;3.47;;;11.90;99.90;;;;;;4973503;28;20074;-42
2023/06/02 00:45:03;;;;;;;17.77;3.30;;;11.90;99.90;;;;;;4973828;28;20047;-39
2023/06/02 00:47:30;;;;;;;16.52;2.97;;;11.90;99.90;;;;;;4974075;28;20521;-40
2023/06/02 00:49:56;;;;;;;16.90;3.55;;;11.90;99.90;;;;;;4979017;28;20512;-41
2023/06/02 00:52:23;;;;;;;15.57;4.07;;;11.90;99.90;;;;;;4990276;28;20426;-41
2023/06/02 00:54:50;;;;;;;15.75;3.40;;;11.90;99.90;;;;;;4987303;28;20447;-42
2023/06/02 00:57:17;;;;;;;20.80;3.33;;;11.90;99.90;;;;;;4991469;28;20502;-41
2023/06/02 00:59:46;;;;;;;16.45;3.90;;;11.90;99.90;;;;;;4973742;28;20053;-39
2023/06/02 01:02:13;;;;;;;13.02;2.78;;;11.90;99.90;;;;;;4974445;28;20061;-41
2023/06/02 01:04:40;;;;;;;21.48;3.97;;;11.90;99.90;;;;;;4973601;28;20047;-42
2023/06/02 01:07:07;;;;;;;18.98;3.47;;;11.90;99.90;;;;;;4973599;28;20502;-41
2023/06/02 01:09:34;;;;;;;18.08;4.85;;;11.90;99.90;;;;;;4972456;28;20117;-40
2023/06/02 01:12:01;;;;;;;20.30;3.38;;;11.90;99.90;;;;;;4988243;28;20081;-41
2023/06/02 01:14:28;;;;;;;21.80;3.45;;;11.80;99.90;;;;;;4976736;28;20403;-42
2023/06/02 01:16:56;;;;;;;19.08;3.28;;;11.80;99.90;;;;;;4974064;28;20117;-42
2023/06/02 01:19:26;;;;;;;16.52;4.10;;;11.80;99.90;;;;;;4983648;28;20055;-42
2023/06/02 01:21:57;;;;;;;15.55;3.65;;;11.80;99.90;;;;;;4973890;28;20053;-41
2023/06/02 01:24:30;;;;;;;21.30;3.90;;;11.80;99.90;;;;;;4974409;28;20065;-42
2023/06/02 01:26:58;;;;;;;23.23;3.33;;;11.80;99.90;;;;;;4976149;28;20086;-41
2023/06/02 01:29:25;;;;;;;24.90;3.67;;;11.70;99.90;;;;;;4977870;28;20061;-41
2023/06/02 01:31:54;;;;;;;16.08;3.22;;;11.80;99.90;;;;;;4985854;28;20058;-41
2023/06/02 01:34:22;;;;;;;23.88;5.15;;;11.70;99.90;;;;;;4989352;28;20042;-40
2023/06/02 01:36:50;;;;;;;21.38;3.20;;;11.70;99.90;;;;;;4976973;28;20058;-39
2023/06/02 01:39:17;;;;;;;17.58;3.50;;;11.70;99.90;;;;;;4982318;28;20074;-41
2023/06/02 01:41:46;;;;;;;24.15;4.28;;;11.60;99.90;;;;;;4979086;28;20050;-41
2023/06/02 01:44:13;;;;;;;17.05;3.10;;;11.70;99.90;;;;;;4976985;28;20058;-41
2023/06/02 01:46:40;;;;;;;22.13;4.25;;;11.70;99.90;;;;;;4982262;28;20141;-40
2023/06/02 01:49:13;;;;;;;19.30;3.17;;;11.70;99.90;;;;;;4993947;28;20097;-40
2023/06/02 01:51:41;;;;;;;15.55;3.40;;;11.70;99.90;;;;;;4976271;28;20082;-40
2023/06/02 01:54:07;;;;;;;20.25;3.85;;;11.70;99.90;;;;;;4976605;28;20061;-39
2023/06/02 01:56:34;;;;;;;12.30;3.13;;;11.70;99.90;;;;;;4976718;28;20569;-40
2023/06/02 01:59:02;;;;;;;15.07;2.40;;;11.70;99.90;;;;;;4982003;28;20570;-39
2023/06/02 02:01:30;;;;;;;19.55;3.28;;;11.80;99.90;;;;;;4989066;28;20058;-39
2023/06/02 02:03:57;;;;;;;15.30;3.30;;;11.70;99.90;;;;;;4994828;28;20057;-40
2023/06/02 02:06:29;;;;;;;18.40;3.15;;;11.70;99.90;;;;;;4993186;28;20058;-41
2023/06/02 02:08:56;;;;;;;14.05;3.08;;;11.70;99.90;;;;;;4989677;28;20100;-39
2023/06/02 02:11:23;;;;;;;13.60;2.70;;;11.70;99.90;;;;;;4984401;28;20105;-39
2023/06/02 02:13:51;;;;;;;19.90;3.58;;;11.80;99.90;;;;;;4976635;28;20090;-42
2023/06/02 02:16:19;;;;;;;16.13;3.40;;;11.80;99.90;;;;;;4979206;28;20054;-40
2023/06/02 02:18:46;;;;;;;21.13;3.70;;;11.70;99.90;;;;;;4981488;28;20058;-40
2023/06/02 02:21:13;;;;;;;17.58;3.63;;;11.70;99.90;;;;;;4986899;28;20061;-39
2023/06/02 02:23:40;;;;;;;14.27;2.80;;;11.70;99.90;;;;;;4988568;28;20054;-41
2023/06/02 02:26:07;;;;;;;20.92;3.50;;;11.70;99.90;;;;;;4994547;28;20470;-37
2023/06/02 02:28:34;;;;;;;11.98;2.70;;;11.70;99.90;;;;;;4994142;28;20129;-40
2023/06/02 02:31:00;;;;;;;16.13;3.25;;;11.70;99.90;;;;;;4994861;28;20088;-41
2023/06/02 02:33:28;;;;;;;12.32;2.75;;;11.70;99.90;;;;;;4992929;28;20085;-40
2023/06/02 02:35:55;;;;;;;16.98;3.42;;;11.70;99.90;;;;;;4992912;28;20081;-42
2023/06/02 02:38:22;;;;;;;21.90;4.20;;;11.70;99.90;;;;;;4993845;28;20089;-42
2023/06/02 02:40:49;;;;;;;11.35;3.10;;;11.70;99.90;;;;;;4992624;28;20050;-39
2023/06/02 02:43:17;;;;;;;18.85;3.58;;;11.70;99.90;;;;;;4993895;28;20128;-42
2023/06/02 02:45:44;;;;;;;12.40;3.03;;;11.70;99.90;;;;;;4993402;28;20058;-42
2023/06/02 02:48:11;;;;;;;15.52;3.42;;;11.70;99.90;;;;;;4994225;28;20467;-39
2023/06/02 02:50:39;;;;;;;14.43;3.20;;;11.70;99.90;;;;;;4988363;28;20054;-41
2023/06/02 02:53:06;;;;;;;14.85;3.35;;;11.70;99.90;;;;;;4994456;28;20401;-40
2023/06/02 02:55:33;;;;;;;14.38;3.17;;;11.70;99.90;;;;;;4994224;28;20129;-40
2023/06/02 02:58:01;;;;;;;22.85;3.72;;;11.70;99.90;;;;;;4984046;28;20109;-39
2023/06/02 03:00:28;;;;;;;18.17;3.42;;;11.70;99.90;;;;;;4993274;28;20050;-40
2023/06/02 03:02:56;;;;;;;18.05;3.08;;;11.70;99.90;;;;;;4992867;28;20054;-38
2023/06/02 03:05:23;;;;;;;13.80;2.85;;;11.70;99.90;;;;;;4989788;28;20101;-42
2023/06/02 03:07:51;;;;;;;13.32;2.72;;;11.80;99.90;;;;;;4987075;28;20584;-39
2023/06/02 03:10:18;;;;;;;20.90;3.30;;;11.70;99.90;;;;;;4988369;28;20152;-40
2023/06/02 03:12:45;;;;;;;17.20;3.35;;;11.70;99.90;;;;;;4993260;28;20469;-41
2023/06/02 03:15:11;;;;;;;14.85;3.30;;;11.70;99.90;;;;;;4992658;28;20042;-41
2023/06/02 03:17:41;;;;;;;15.00;3.30;;;11.70;99.90;;;;;;4986827;28;20086;-40
2023/06/02 03:20:12;;;;;;;16.95;3.53;;;11.70;99.90;;;;;;4992976;28;20054;-38
2023/06/02 03:22:38;;;;;;;17.08;2.95;;;11.70;99.90;;;;;;4990999;28;20487;-38
2023/06/02 03:25:07;;;;;;;20.73;4.20;;;11.70;99.90;;;;;;4994461;28;20053;-39
2023/06/02 03:27:34;;;;;;;19.42;3.30;;;11.70;99.90;;;;;;4993192;28;20134;-39
2023/06/02 03:30:01;;;;;;;18.08;3.40;;;11.70;99.90;;;;;;4990840;28;20058;-43
2023/06/02 03:32:29;;;;;;;17.00;3.00;;;11.70;99.90;;;;;;4978991;28;20055;-41
2023/06/02 03:34:56;;;;;;;16.13;3.13;;;11.70;99.90;;;;;;4985606;28;20451;-37
2023/06/02 03:37:23;;;;;;;17.70;3.17;;;11.80;99.90;;;;;;4993988;28;20054;-42
2023/06/02 03:39:49;;;;;;;17.88;3.58;;;11.70;99.90;;;;;;4993087;28;20085;-41
2023/06/02 03:42:17;;;;;;;16.05;2.95;;;11.70;99.90;;;;;;4990516;28;20485;-39
2023/06/02 03:44:45;;;;;;;18.30;3.88;;;11.70;99.90;;;;;;4973969;28;20477;-38
2023/06/02 03:47:11;;;;;;;20.85;3.97;;;11.70;99.90;;;;;;4987469;28;20506;-41
2023/06/02 03:49:38;;;;;;;15.27;3.70;;;11.70;99.90;;;;;;4991463;28;20494;-36
2023/06/02 03:52:06;;;;;;;23.13;3.25;;;11.80;99.90;;;;;;4976061;28;20051;-39
2023/06/02 03:54:32;;;;;;;18.48;3.63;;;11.70;99.90;;;;;;4979226;28;20396;-39
2023/06/02 03:57:00;;;;;;;17.63;3.33;;;11.80;99.90;;;;;;4978154;28;20149;-40
2023/06/02 03:59:28;;;;;;;20.55;3.72;;;11.80;99.90;;;;;;4986830;28;20081;-39
2023/06/02 04:01:55;;;;;;;16.58;3.55;;;11.80;99.90;;;;;;4975244;28;20055;-41
2023/06/02 04:04:21;;;;;;;15.90;3.10;;;11.80;99.90;;;;;;4974026;28;20431;-36
2023/06/02 04:06:48;;;;;;;17.75;3.58;;;11.80;99.90;;;;;;4976508;28;20153;-42
2023/06/02 04:09:15;;;;;;;24.13;3.70;;;11.80;99.90;;;;;;4987318;28;20051;-38
2023/06/02 04:11:42;;;;;;;20.90;3.72;;;11.80;99.90;;;;;;4984740;28;20098;-41
2023/06/02 04:14:09;;;;;;;22.40;3.40;;;11.80;99.90;;;;;;4983595;28;20086;-39
2023/06/02 04:16:37;;;;;;;17.05;3.33;;;11.80;99.90;;;;;;4974947;28;20514;-42
2023/06/02 04:19:05;;;;;;;16.85;3.00;;;11.90;99.90;;;;;;4973122;28;20055;-42
2023/06/02 04:21:32;;;;;;;16.10;3.60;;;11.90;99.90;;;;;;4982253;28;20473;-41
2023/06/02 04:23:58;;;;;;;19.60;3.53;;;11.90;99.90;;;;;;4987349;28;20097;-42
2023/06/02 04:26:25;;;;;;;16.95;3.35;;;11.90;99.90;;;;;;4974182;28;20086;-35
2023/06/02 04:28:52;;;;;;;14.07;2.90;;;11.90;99.90;;;;;;4975952;28;20093;-40
2023/06/02 04:31:26;;;;;;;17.42;3.45;;;11.90;99.90;;;;;;4978394;28;20105;-42
2023/06/02 04:33:54;;;;;;;17.20;3.92;;;12.00;99.90;;;;;;4975878;28;20487;-40
2023/06/02 04:36:21;;;;;;;13.73;3.42;;;12.00;99.90;;;;;;4983524;28;20045;-40
2023/06/02 04:38:48;;;;;;;14.82;3.20;;;12.00;99.90;;;;;;4979818;28;20086;-42
2023/06/02 04:41:15;;;;;;;15.55;3.67;;;12.00;99.90;;;;;;4972116;28;20138;-37
2023/06/02 04:43:42;;;;;;;18.13;3.13;;;12.00;99.90;;;;;;4974170;28;20086;-38
2023/06/02 04:46:10;;;;;;;21.65;3.15;;;12.00;99.90;;;;;;4980794;28;20065;-41
2023/06/02 04:48:39;;;;;;;22.42;4.07;;;12.10;99.90;;;;;;4984473;28;20057;-40
2023/06/02 04:51:08;;;;;;;21.38;3.85;;;12.10;99.90;;;;;;4976576;28;20066;-40
2023/06/02 04:53:34;;;;;;;26.92;4.25;;;12.10;99.90;;;;;;4973015;28;20058;-41
2023/06/02 04:56:02;;;;;;;21.27;3.40;;;12.10;99.90;;;;;;4975476;28;20050;-41
2023/06/02 04:58:29;;;;;;;23.52;5.05;;;12.10;99.90;;;;;;4974682;28;20476;-41
2023/06/02 05:00:56;;;;;;;16.65;2.90;;;12.10;99.90;;;;;;4974472;28;20133;-41
2023/06/02 05:03:22;;;;;;;20.67;3.53;;;12.10;99.90;;;;;;4981921;28;20077;-39
2023/06/02 05:05:49;;;;;;;16.88;3.08;;;12.10;99.90;;;;;;4986763;28;20129;-40
2023/06/02 05:08:18;;;;;;;22.90;3.67;;;12.10;99.90;;;;;;4974162;28;20051;-41
2023/06/02 05:10:44;;;;;;;21.27;4.07;;;12.20;99.90;;;;;;4971600;28;20046;-40
2023/06/02 05:13:13;;;;;;;18.02;3.25;;;12.20;99.90;;;;;;4979981;28;20093;-43
2023/06/02 05:15:39;;;;;;;18.17;3.92;;;12.30;99.90;;;;;;4984295;28;20050;-42
2023/06/02 05:18:07;;;;;;;23.00;4.00;;;12.30;99.90;;;;;;4977310;28;20109;-42
2023/06/02 05:20:33;;;;;;;19.42;3.47;;;12.30;99.90;;;;;;4974814;28;20142;-42
2023/06/02 05:23:00;;;;;;;24.33;4.53;;;12.30;99.90;;;;;;4977467;28;20460;-42
2023/06/02 05:25:28;;;;;;;21.25;4.63;;;12.40;99.90;;;;;;4974974;28;20571;-39
2023/06/02 05:27:55;;;;;;;19.75;3.40;;;12.40;99.90;;;;;;4976289;28;20056;-42
2023/06/02 05:30:22;;;;;;;21.15;4.10;;;12.40;99.90;;;;;;4980122;28;20050;-39
2023/06/02 05:32:49;;;;;;;20.30;3.20;;;12.40;99.90;;;;;;4973185;28;20077;-43
2023/06/02 05:35:15;;;;;;;19.08;4.32;;;12.40;99.90;;;;;;4973063;28;20487;-38
2023/06/02 05:37:43;;;;;;;19.90;3.90;;;12.40;99.90;;;;;;4974218;28;20513;-42
2023/06/02 05:40:11;;;;;;;21.80;4.50;;;12.50;99.90;;;;;;4977229;28;20046;-43
2023/06/02 05:42:39;;;;;;;25.23;4.65;;;12.50;99.90;;;;;;4974271;28;20050;-42
2023/06/02 05:45:07;;;;;;;19.70;3.83;;;12.50;99.90;;;;;;4990779;28;20074;-41
2023/06/02 05:47:34;;;;;;;22.27;4.55;;;12.50;99.90;;;;;;4987052;28;20042;-42
2023/06/02 05:50:01;;;;;;;21.95;3.95;;;12.50;99.90;;;;;;4979558;28;20082;-42
2023/06/02 05:52:27;;;;;;;31.42;4.70;;;12.60;99.90;;;;;;4978616;28;20093;-40
2023/06/02 05:54:55;;;;;;;27.15;4.82;;;12.60;99.90;;;;;;4980236;28;20081;-42
2023/06/02 05:57:21;;;;;;;24.45;3.90;;;12.60;99.90;;;;;;4972042;28;20054;-38
2023/06/02 05:59:50;;;;;;;21.35;4.47;;;12.70;99.90;;;;;;4987049;28;20129;-41
2023/06/02 06:02:16;;;;;;;20.55;4.55;;;12.70;99.90;;;;;;4979548;28;20108;-41
2023/06/02 06:04:43;;;;;;;17.55;3.97;;;12.70;99.90;;;;;;4981443;28;20113;-43
2023/06/02 06:07:10;;;;;;;24.98;4.40;;;12.70;99.90;;;;;;4972433;28;20206;-41
2023/06/02 06:09:37;;;;;;;19.15;3.92;;;12.80;99.90;;;;;;4972856;28;20189;-37
2023/06/02 06:12:04;;;;;;;22.10;4.43;;;12.80;99.90;;;;;;4975879;28;20086;-41
2023/06/02 06:14:31;;;;;;;21.50;4.05;;;12.90;99.90;;;;;;4975945;28;20090;-39
2023/06/02 06:16:59;;;;;;;25.67;4.40;;;12.90;99.90;;;;;;4989851;28;20078;-42
2023/06/02 06:19:25;;;;;;;24.52;4.40;;;13.00;99.90;;;;;;4999958;28;20566;-43
2023/06/02 06:21:52;;;;;;;24.88;4.03;;;13.00;99.90;;;;;;4979873;28;20054;-41
2023/06/02 06:24:19;;;;;;;25.92;4.88;;;13.00;99.90;;;;;;4986064;28;20047;-41
2023/06/02 06:26:46;;;;;;;20.70;3.92;;;13.00;99.90;;;;;;4989116;28;20137;-42
2023/06/02 06:29:12;;;;;;;18.00;3.67;;;13.10;99.90;;;;;;4977592;28;20090;-41
2023/06/02 06:31:39;;;;;;;25.77;4.57;;;13.20;99.90;;;;;;4982368;28;20085;-41
2023/06/02 06:34:08;;;;;;;25.80;4.00;;;13.20;99.90;;;;;;4984737;28;20046;-43
2023/06/02 06:36:35;;;;;;;24.05;4.30;;;13.30;99.90;;;;;;4991209;28;20323;-39
2023/06/02 06:39:02;;;;;;;26.63;4.70;;;13.30;99.90;;;;;;4991251;28;20510;-40
2023/06/02 06:41:29;;;;;;;31.73;4.82;;;13.40;99.90;;;;;;4974558;28;20460;-42
2023/06/02 06:43:56;;;;;;;23.17;3.97;;;13.50;99.90;;;;;;4988065;28;20055;-38
2023/06/02 06:46:22;;;;;;;25.30;4.10;;;13.50;99.90;;;;;;4981635;28;20527;-38
2023/06/02 06:48:50;;;;;;;24.55;4.35;;;13.60;99.90;;;;;;4977712;28;20518;-42
2023/06/02 06:51:19;;;;;;;27.13;4.68;;;13.60;99.90;;;;;;4973235;28;20054;-41
2023/06/02 06:53:45;;;;;;;29.98;5.05;;;13.70;99.90;;;;;;4983215;28;20104;-41
2023/06/02 06:56:12;;;;;;;21.33;3.85;;;13.70;99.90;;;;;;4983645;28;20141;-42
2023/06/02 06:58:39;;;;;;;30.55;5.35;;;13.80;99.90;;;;;;4983052;28;20138;-43
2023/06/02 07:01:06;;;;;;;25.10;5.32;;;13.90;99.90;;;;;;4983290;28;20101;-42
2023/06/02 07:03:32;;;;;;;46.45;5.95;;;13.90;99.90;;;;;;4981619;28;20560;-41
2023/06/02 07:06:00;;;;;;;40.92;6.68;;;14.00;99.90;;;;;;4981537;28;20078;-43
2023/06/02 07:08:28;;;;;;;42.10;13.80;;;14.00;99.90;;;;;;4980267;28;20054;-40
2023/06/02 07:10:55;;;;;;;33.80;7.93;;;14.10;99.90;;;;;;4987728;28;20495;-41
2023/06/02 07:13:22;;;;;;;22.10;4.38;;;14.10;99.90;;;;;;4983548;28;20089;-39
2023/06/02 07:15:49;;;;;;;38.50;5.90;;;14.20;99.90;;;;;;4986618;28;20125;-41
2023/06/02 07:18:16;;;;;;;30.25;4.80;;;14.30;99.90;;;;;;4976574;28;20049;-40
2023/06/02 07:20:42;;;;;;;27.25;5.15;;;14.30;99.90;;;;;;4980566;28;20133;-43
2023/06/02 07:23:10;;;;;;;158.65;12.02;;;14.40;99.90;;;;;;4979578;28;20371;-37
2023/06/02 07:25:38;;;;;;;27.85;4.90;;;14.40;99.90;;;;;;4980882;28;20411;-41
2023/06/02 07:28:05;;;;;;;33.15;5.22;;;14.50;99.90;;;;;;4982643;28;20065;-43
2023/06/02 07:30:32;;;;;;;33.88;5.93;;;14.70;99.90;;;;;;4979243;28;20499;-40
2023/06/02 07:32:59;;;;;;;24.88;4.57;;;14.80;99.90;;;;;;4977865;28;20417;-40
2023/06/02 07:35:26;;;;;;;26.58;4.80;;;14.80;99.90;;;;;;4977927;28;20104;-43
2023/06/02 07:37:53;;;;;;;28.67;5.38;;;14.90;99.90;;;;;;4980571;28;20129;-42
2023/06/02 07:40:20;;;;;;;30.35;5.07;;;15.00;99.90;;;;;;4982361;28;20082;-42
2023/06/02 07:42:48;;;;;;;24.55;5.03;;;15.10;99.90;;;;;;4977371;28;20050;-44
2023/06/02 07:45:15;;;;;;;32.33;5.68;;;15.10;99.90;;;;;;4980609;28;20050;-39
2023/06/02 07:47:42;;;;;;;30.75;6.03;;;15.10;99.90;;;;;;4976863;28;20126;-42
2023/06/02 07:50:09;;;;;;;25.80;5.03;;;15.10;99.90;;;;;;4977961;28;20101;-39
2023/06/02 07:52:36;;;;;;;31.98;5.68;;;15.20;99.90;;;;;;4980966;28;20100;-39
2023/06/02 07:55:03;;;;;;;23.83;4.75;;;15.30;99.90;;;;;;4985708;28;20161;-41
2023/06/02 07:57:30;;;;;;;27.55;5.55;;;15.40;99.90;;;;;;4974427;28;20051;-42
2023/06/02 07:59:58;;;;;;;30.15;5.50;;;15.70;99.90;;;;;;4976257;28;20453;-43
2023/06/02 08:02:25;;;;;;;23.00;5.70;;;15.90;99.90;;;;;;4979176;28;20062;-43
2023/06/02 08:04:52;;;;;;;27.65;5.40;;;16.10;99.90;;;;;;4974866;28;20156;-42
2023/06/02 08:07:18;;;;;;;24.40;5.10;;;16.20;99.90;;;;;;4974272;28;20055;-43
2023/06/02 08:09:45;;;;;;;23.45;5.20;;;16.30;99.90;;;;;;4976373;28;20082;-40
2023/06/02 08:12:12;;;;;;;24.88;5.40;;;16.40;99.90;;;;;;4976002;28;20054;-42
2023/06/02 08:14:39;;;;;;;22.00;4.78;;;16.60;99.90;;;;;;4981398;28;20117;-41
2023/06/02 08:17:07;;;;;;;29.38;5.03;;;16.90;99.90;;;;;;4987044;28;20474;-42
2023/06/02 08:19:36;;;;;;;27.60;4.85;;;17.10;99.90;;;;;;5000778;28;20520;-42
2023/06/02 08:22:03;;;;;;;22.35;4.78;;;17.30;99.90;;;;;;4981178;28;20130;-42
2023/06/02 08:24:31;;;;;;;18.35;4.50;;;17.40;99.90;;;;;;4981360;28;20116;-39
2023/06/02 08:27:00;;;;;;;25.05;4.68;;;17.60;99.90;;;;;;4987146;28;20711;-43
2023/06/02 08:29:27;;;;;;;46.08;15.57;;;17.80;99.90;;;;;;4984766;28;20054;-44
2023/06/02 08:31:54;;;;;;;23.45;4.88;;;17.90;99.90;;;;;;4985341;28;20092;-44
2023/06/02 08:34:24;;;;;;;18.58;4.35;;;18.10;99.90;;;;;;4986014;28;20093;-43
2023/06/02 08:36:53;;;;;;;26.10;4.65;;;18.40;99.90;;;;;;4988915;28;20050;-43
2023/06/02 08:39:20;;;;;;;31.42;5.13;;;18.70;99.90;;;;;;4984012;28;20065;-41
2023/06/02 08:41:47;;;;;;;20.00;4.50;;;18.90;99.90;;;;;;4984589;28;20105;-45
2023/06/02 08:44:14;;;;;;;19.88;4.65;;;19.00;99.90;;;;;;4988632;28;20121;-40
2023/06/02 08:46:41;;;;;;;20.02;4.35;;;19.00;99.80;;;;;;4998437;28;20098;-40
2023/06/02 08:49:08;;;;;;;17.95;4.20;;;18.90;99.10;;;;;;4993002;28;20137;-40
2023/06/02 08:51:37;;;;;;;16.98;4.45;;;18.90;99.10;;;;;;4989604;28;20074;-43
2023/06/02 08:54:05;;;;;;;23.20;4.63;;;18.90;98.90;;;;;;4988264;28;20090;-43
2023/06/02 08:56:31;;;;;;;21.88;4.20;;;19.10;99.00;;;;;;4987544;28;20474;-41
2023/06/02 08:58:58;;;;;;;17.50;4.22;;;19.20;98.70;;;;;;4980724;28;20042;-43
2023/06/02 09:01:25;;;;;;;23.67;4.30;;;19.30;98.50;;;;;;4974628;28;20046;-43
2023/06/02 09:03:52;;;;;;;20.58;3.85;;;19.60;98.80;;;;;;4974927;28;20046;-40
2023/06/02 09:06:20;;;;;;;20.38;3.80;;;19.90;98.50;;;;;;4973568;28;20384;-43
2023/06/02 09:08:56;;;;;;;24.98;4.47;;;20.10;98.20;;;;;;4977359;28;20434;-44
2023/06/02 09:11:23;;;;;;;16.73;3.47;;;20.40;97.80;;;;;;4973610;28;20102;-43
2023/06/02 09:13:49;;;;;;;16.45;3.40;;;20.40;97.60;;;;;;4972453;28;20050;-43
2023/06/02 09:16:16;;;;;;;14.10;3.30;;;20.40;96.80;;;;;;4987984;28;20057;-41
2023/06/02 09:18:55;;;;;;;16.98;3.17;;;20.40;96.60;;;;;;4987008;28;20086;-44
2023/06/02 09:21:27;;;;;;;15.95;3.25;;;20.30;96.10;;;;;;4979703;28;20483;-44
2023/06/02 09:23:55;;;;;;;13.52;2.97;;;20.20;96.60;;;;;;4980383;28;20050;-41
2023/06/02 09:26:22;;;;;;;18.38;3.33;;;20.20;96.50;;;;;;4980035;28;20046;-42
2023/06/02 09:29:06;;;;;;;14.60;2.92;;;20.40;96.50;;;;;;4970140;28;20110;-43
2023/06/02 09:31:46;;;;;;;17.05;3.47;;;20.60;95.60;;;;;;4990099;28;20537;-45
2023/06/02 09:34:14;;;;;;;7.95;2.85;;;20.80;94.60;;;;;;4985474;28;20086;-44
2023/06/02 09:36:40;;;;;;;14.75;2.63;;;21.00;95.10;;;;;;4980941;28;20047;-42
2023/06/02 09:39:10;;;;;;;13.13;3.10;;;21.30;94.70;;;;;;4976899;28;20180;-40
2023/06/02 09:41:38;;;;;;;12.60;2.60;;;21.70;93.60;;;;;;4980993;28;20054;-43
2023/06/02 09:44:14;;;;;;;18.85;3.42;;;21.90;93.50;;;;;;4972111;28;20082;-42
2023/06/02 09:46:42;;;;;;;19.90;3.33;;;22.20;93.30;;;;;;4984320;28;20140;-41
2023/06/02 09:49:09;;;;;;;11.02;3.13;;;22.20;93.30;;;;;;4986935;28;20054;-41
2023/06/02 09:51:37;;;;;;;14.95;2.35;;;22.10;92.40;;;;;;4979489;28;20150;-41
2023/06/02 09:54:04;;;;;;;10.98;2.78;;;22.20;92.20;;;;;;4989469;28;20058;-42
2023/06/02 09:56:36;;;;;;;10.38;2.38;;;22.40;91.40;;;;;;4983095;28;20062;-41
2023/06/02 09:59:04;;;;;;;9.23;2.45;;;22.40;91.30;;;;;;4990568;28;20050;-43
2023/06/02 10:01:31;;;;;;;11.00;2.30;;;22.30;90.80;;;;;;4985597;28;20042;-45
2023/06/02 10:03:58;;;;;;;12.48;2.72;;;22.40;91.00;;;;;;4987567;28;20130;-45
2023/06/02 10:06:32;;;;;;;10.48;2.65;;;22.60;90.20;;;;;;4985478;28;20402;-44
2023/06/02 10:09:11;;;;;;;12.43;2.38;;;22.80;90.00;;;;;;4982985;28;20384;-42
2023/06/02 10:11:44;;;;;;;52.85;36.33;;;23.00;89.60;;;;;;4985405;28;20561;-44
2023/06/02 10:14:21;;;;;;;14.88;4.43;;;23.10;87.40;;;;;;4983992;28;20066;-42
2023/06/02 10:16:54;;;;;;;12.77;2.72;;;23.00;86.50;;;;;;4982484;28;20141;-42
2023/06/02 10:19:46;;;;;;;10.13;2.55;;;22.80;85.80;;;;;;5001796;28;20082;-43
2023/06/02 10:22:25;;;;;;;10.00;2.97;;;22.60;85.60;;;;;;4980778;28;20283;-44
2023/06/02 10:24:57;;;;;;;10.35;2.63;;;22.50;85.60;;;;;;4975324;28;20051;-44
2023/06/02 10:27:27;;;;;;;9.98;2.10;;;22.40;84.70;;;;;;4977788;28;20132;-44
2023/06/02 10:29:54;;;;;;;9.70;2.67;;;22.30;84.70;;;;;;4987949;28;20259;-41
2023/06/02 10:32:22;;;;;;;10.35;2.90;;;22.10;86.20;;;;;;4979634;28;20046;-43
2023/06/02 10:34:52;;;;;;;9.23;2.97;;;22.00;87.00;;;;;;4979658;28;20057;-44
2023/06/02 10:37:19;;;;;;;12.25;2.53;;;22.10;87.00;;;;;;4978346;28;20403;-43
2023/06/02 10:39:47;;;;;;;12.57;2.42;;;22.20;87.10;;;;;;4977462;28;20054;-43
2023/06/02 10:42:15;;;;;;;10.95;2.22;;;22.40;86.40;;;;;;4982395;28;20474;-40
2023/06/02 10:44:43;;;;;;;15.93;2.60;;;22.80;86.80;;;;;;4980980;28;20046;-44
2023/06/02 10:47:35;;;;;;;8.07;2.70;;;23.10;84.20;;;;;;4977836;28;20053;-43
2023/06/02 10:50:03;;;;;;;10.07;2.55;;;23.30;85.50;;;;;;4990289;28;20046;-41
2023/06/02 10:52:31;;;;;;;6.43;2.10;;;23.50;81.90;;;;;;4976443;28;20047;-43
2023/06/02 10:55:27;;;;;;;9.02;1.80;;;23.60;81.10;;;;;;4985126;28;20082;-43
2023/06/02 10:57:54;;;;;;;10.30;2.00;;;23.60;79.60;;;;;;4977204;28;20051;-44
2023/06/02 11:00:46;;;;;;;8.85;2.00;;;23.60;77.70;;;;;;4977005;28;20134;-43
2023/06/02 11:03:33;;;;;;;7.22;2.20;;;23.50;76.90;;;;;;4977291;28;20394;-45
2023/06/02 11:06:21;;;;;;;9.10;2.05;;;23.50;77.50;;;;;;4978027;28;20092;-45
2023/06/02 11:08:49;;;;;;;7.75;1.70;;;23.50;75.60;;;;;;4975601;28;20050;-45
2023/06/02 11:11:54;;;;;;;6.95;1.63;;;23.20;76.00;;;;;;4982151;28;20065;-43
2023/06/02 11:14:21;;;;;;;9.45;1.52;;;23.30;76.90;;;;;;4977921;28;20506;-43
2023/06/02 11:17:10;;;;;;;5.20;1.30;;;23.40;75.60;;;;;;4981709;28;20108;-45
2023/06/02 11:19:50;;;;;;;4.75;1.60;;;23.50;75.90;;;;;;4959051;28;20112;-44
2023/06/02 11:22:19;;;;;;;7.30;1.50;;;23.60;75.30;;;;;;4978550;28;20109;-45
2023/06/02 11:24:47;;;;;;;8.02;1.77;;;23.60;74.50;;;;;;4977767;28;20046;-46
2023/06/02 11:27:13;;;;;;;9.48;1.50;;;23.70;73.30;;;;;;4981897;28;20121;-41
2023/06/02 11:29:44;;;;;;;6.07;1.20;;;23.70;73.70;;;;;;4980672;28;20454;-45
2023/06/02 11:32:12;;;;;;;3.57;1.83;;;23.80;74.10;;;;;;4982241;28;20154;-45
2023/06/02 11:34:39;;;;;;;6.82;1.55;;;23.80;73.30;;;;;;4988787;28;20304;-44
2023/06/02 11:37:14;;;;;;;6.95;1.60;;;23.90;74.00;;;;;;4989046;28;20079;-45
2023/06/02 11:39:51;;;;;;;6.43;1.40;;;24.10;72.40;;;;;;4977396;28;20061;-44
2023/06/02 11:42:17;;;;;;;5.72;1.42;;;24.20;71.80;;;;;;4989123;28;20054;-43
2023/06/02 11:44:48;;;;;;;5.53;1.55;;;24.20;71.60;;;;;;4982408;28;20364;-41
2023/06/02 11:47:19;;;;;;;17.58;1.90;;;24.50;70.70;;;;;;4977601;28;20063;-44
2023/06/02 11:49:46;;;;;;;4.25;1.52;;;24.70;71.60;;;;;;4990977;28;20085;-45
2023/06/02 11:52:13;;;;;;;6.43;1.45;;;25.00;71.90;;;;;;4990200;28;20105;-46
2023/06/02 11:54:51;;;;;;;5.60;1.90;;;25.10;70.90;;;;;;4984510;28;20046;-44
2023/06/02 11:57:30;;;;;;;7.60;2.40;;;25.00;69.20;;;;;;4993342;28;20054;-43
2023/06/02 12:00:09;;;;;;;9.25;2.22;;;25.00;65.70;;;;;;4991698;28;20501;-44
2023/06/02 12:02:39;;;;;;;5.78;1.63;;;24.90;67.90;;;;;;4996329;28;20479;-41
2023/06/02 12:05:10;;;;;;;8.73;1.58;;;24.90;68.70;;;;;;4990679;28;20050;-45
2023/06/02 12:07:37;;;;;;;5.00;1.60;;;25.10;67.20;;;;;;4988525;28;20390;-44
2023/06/02 12:10:05;;;;;;;5.10;1.60;;;25.10;67.10;;;;;;4991287;28;20114;-45
2023/06/02 12:12:32;;;;;;;4.93;1.60;;;25.00;67.20;;;;;;4989900;28;20070;-44
2023/06/02 12:14:59;;;;;;;4.85;1.60;;;25.00;67.20;;;;;;4982166;28;20054;-44
2023/06/02 12:17:26;;;;;;;4.72;1.50;;;25.00;66.40;;;;;;4971753;28;20054;-45
2023/06/02 12:20:00;;;;;;;8.07;1.50;;;25.10;66.10;;;;;;4988764;28;20098;-44
2023/06/02 12:22:27;;;;;;;5.28;1.23;;;25.40;65.80;;;;;;4973737;28;20046;-45
2023/06/02 12:24:54;;;;;;;3.60;1.52;;;25.60;63.30;;;;;;4988923;28;20146;-43
2023/06/02 12:27:24;;;;;;;5.65;1.45;;;25.50;61.00;;;;;;4973431;28;20170;-44
2023/06/02 12:29:51;;;;;;;3.97;1.52;;;25.40;60.90;;;;;;4973738;28;20388;-43
2023/06/02 12:32:25;;;;;;;3.85;1.30;;;25.40;61.70;;;;;;4973125;28;20061;-44
2023/06/02 12:34:52;;;;;;;5.68;1.50;;;25.50;63.10;;;;;;4972342;28;20055;-45
2023/06/02 12:37:20;;;;;;;6.20;1.52;;;25.60;63.00;;;;;;4973566;28;20387;-45
2023/06/02 12:39:47;;;;;;;3.88;1.65;;;25.80;62.20;;;;;;4972149;28;20054;-45
2023/06/02 12:42:18;;;;;;;4.65;1.23;;;26.00;61.30;;;;;;4973194;28;20166;-43
2023/06/02 12:44:46;;;;;;;4.15;1.42;;;26.20;61.70;;;;;;4973407;28;20137;-44